< < Back
Terminal Aerodrome Forecast


Current Version              Previous Versions:   1  2  3  4  5  6  7  8  9  

Terminal Aerodrome Forecast

868
FTUS44 KBMX 250500
TAFMGM
TAF
KMGM 250526Z 2506/2606 00000KT P6SM BKN050
     FM250900 00000KT 3SM BR OVC015
     FM251400 26003KT P6SM VCSH BKN035
     FM260100 VRB03KT P6SM SCT035=

Latest METAR

979
SAUS80 KWBC 251500 RRA
MTRMGM
METAR KMGM 251453Z 18004KT 10SM FEW016 BKN080 28/23 A3005 RMK AO2 SLP171
T02830233 51012


USA.gov is the U.S. government's official web portal to all federal, state and local government web resources and services.